createdAt,value
2023-03-05T00:01:05.465Z,100512.75
2023-03-05T00:03:33.263Z,100506.44
2023-03-05T00:06:01.136Z,100509.50
2023-03-05T00:08:29.045Z,100514.25
2023-03-05T00:10:56.802Z,100513.75
2023-03-05T00:13:24.607Z,100518.66
2023-03-05T00:15:52.463Z,100508.31
2023-03-05T00:18:20.297Z,100517.50
2023-03-05T00:20:48.212Z,100509.00
2023-03-05T00:23:16.006Z,100510.88
2023-03-05T00:25:44.350Z,100502.59
2023-03-05T00:28:12.109Z,100499.00
2023-03-05T00:30:39.909Z,100497.47
2023-03-05T00:33:07.684Z,100490.84
2023-03-05T00:35:36.135Z,100488.81
2023-03-05T00:38:04.023Z,100489.16
2023-03-05T00:40:31.966Z,100482.88
2023-03-05T00:42:59.728Z,100484.91
2023-03-05T00:45:27.512Z,100477.78
2023-03-05T00:47:55.374Z,100484.38
2023-03-05T00:50:23.179Z,100483.38
2023-03-05T00:52:51.093Z,100486.94
2023-03-05T00:55:18.827Z,100475.59
2023-03-05T00:57:46.817Z,100473.03
2023-03-05T01:00:14.575Z,100463.88
2023-03-05T01:02:42.434Z,100467.59
2023-03-05T01:05:10.252Z,100467.59
2023-03-05T01:07:38.044Z,100465.56
2023-03-05T01:10:05.852Z,100458.75
2023-03-05T01:12:33.741Z,100460.63
2023-03-05T01:15:01.470Z,100459.44
2023-03-05T01:17:29.259Z,100453.69
2023-03-05T01:19:57.025Z,100452.69
2023-03-05T01:22:24.878Z,100440.09
2023-03-05T01:24:54.559Z,100445.53
2023-03-05T01:27:22.266Z,100449.78
2023-03-05T01:29:50.009Z,100444.19
2023-03-05T01:32:17.840Z,100443.50
2023-03-05T01:34:45.600Z,100439.78
2023-03-05T01:37:13.372Z,100447.91
2023-03-05T01:39:41.185Z,100443.34
2023-03-05T01:42:09.153Z,100436.06
2023-03-05T01:44:36.900Z,100428.06
2023-03-05T01:47:04.638Z,100420.28
2023-03-05T01:49:32.430Z,100432.31
2023-03-05T01:52:00.212Z,100421.97
2023-03-05T01:54:28.059Z,100421.13
2023-03-05T01:56:55.855Z,100423.13
2023-03-05T01:59:23.623Z,100420.44
2023-03-05T02:01:51.437Z,100416.38
2023-03-05T02:04:19.930Z,100421.81
2023-03-05T02:06:47.727Z,100410.25
2023-03-05T02:09:15.491Z,100400.09
2023-03-05T02:11:43.293Z,100408.56
2023-03-05T02:14:11.020Z,100399.75
2023-03-05T02:16:39.029Z,100401.44
2023-03-05T02:19:07.007Z,100394.31
2023-03-05T02:21:34.780Z,100389.72
2023-03-05T02:24:02.507Z,100388.91
2023-03-05T02:26:30.584Z,100392.28
2023-03-05T02:28:59.480Z,100394.31
2023-03-05T02:31:27.329Z,100389.25
2023-03-05T02:33:55.936Z,100389.91
2023-03-05T02:36:23.641Z,100381.59
2023-03-05T02:38:52.991Z,100385.50
2023-03-05T02:41:22.810Z,100368.22
2023-03-05T02:43:50.682Z,100373.28
2023-03-05T02:46:18.677Z,100369.22
2023-03-05T02:48:46.449Z,100370.06
2023-03-05T02:51:14.247Z,100370.94
2023-03-05T02:53:42.046Z,100367.88
2023-03-05T02:56:09.847Z,100367.53
2023-03-05T02:58:37.746Z,100360.56
2023-03-05T03:01:05.518Z,100360.38
2023-03-05T03:03:33.510Z,100361.25
2023-03-05T03:06:01.358Z,100361.25
2023-03-05T03:08:29.303Z,100362.25
2023-03-05T03:10:57.349Z,100367.19
2023-03-05T03:13:25.399Z,100365.81
2023-03-05T03:15:53.229Z,100360.38
2023-03-05T03:18:21.066Z,100367.53
2023-03-05T03:20:49.603Z,100364.97
2023-03-05T03:23:17.358Z,100358.69
2023-03-05T03:25:45.111Z,100353.44
2023-03-05T03:28:13.046Z,100358.22
2023-03-05T03:30:40.855Z,100346.31
2023-03-05T03:33:08.805Z,100340.75
2023-03-05T03:35:36.678Z,100344.44
2023-03-05T03:38:05.089Z,100341.06
2023-03-05T03:40:32.911Z,100336.16
2023-03-05T03:43:00.710Z,100343.13
2023-03-05T03:45:28.468Z,100340.06
2023-03-05T03:47:56.226Z,100330.38
2023-03-05T03:50:24.974Z,100331.91
2023-03-05T03:52:52.834Z,100328.88
2023-03-05T03:55:20.591Z,100327.84
2023-03-05T03:57:48.653Z,100322.41
2023-03-05T04:00:16.577Z,100322.59
2023-03-05T04:02:44.460Z,100316.81
2023-03-05T04:05:12.410Z,100313.94
2023-03-05T04:07:40.240Z,100316.81
2023-03-05T04:10:08.048Z,100309.69
2023-03-05T04:12:35.873Z,100303.25
2023-03-05T04:15:03.688Z,100311.41
2023-03-05T04:17:31.497Z,100305.13
2023-03-05T04:19:59.355Z,100305.13
2023-03-05T04:22:27.341Z,100303.06
2023-03-05T04:24:55.118Z,100298.34
2023-03-05T04:27:22.875Z,100303.75
2023-03-05T04:29:50.821Z,100295.78
2023-03-05T04:32:23.274Z,100285.63
2023-03-05T04:34:51.082Z,100286.81
2023-03-05T04:37:18.843Z,100279.69
2023-03-05T04:39:46.592Z,100278.84
2023-03-05T04:42:14.454Z,100263.56
2023-03-05T04:44:42.330Z,100268.84
2023-03-05T04:47:10.162Z,100272.91
2023-03-05T04:49:37.922Z,100278.31
2023-03-05T04:52:05.886Z,100267.81
2023-03-05T04:54:33.717Z,100263.41
2023-03-05T04:57:02.511Z,100269.19
2023-03-05T04:59:30.481Z,100263.22
2023-03-05T05:01:58.350Z,100245.97
2023-03-05T05:04:26.314Z,100249.69
2023-03-05T05:06:54.161Z,100258.34
2023-03-05T05:09:22.001Z,100246.66
2023-03-05T05:11:49.776Z,100251.72
2023-03-05T05:14:17.642Z,100242.06
2023-03-05T05:16:45.394Z,100244.78
2023-03-05T05:19:13.203Z,100244.78
2023-03-05T05:21:41.019Z,100242.91
2023-03-05T05:24:08.926Z,100243.59
2023-03-05T05:26:36.669Z,100240.03
2023-03-05T05:29:04.526Z,100228.84
2023-03-05T05:31:32.402Z,100238.16
2023-03-05T05:34:00.247Z,100232.88
2023-03-05T05:36:28.012Z,100242.00
2023-03-05T05:38:55.720Z,100243.66
2023-03-05T05:41:23.462Z,100239.84
2023-03-05T05:43:51.253Z,100239.13
2023-03-05T05:46:19.056Z,100245.72
2023-03-05T05:48:46.877Z,100239.41
2023-03-05T05:51:14.927Z,100244.13
2023-03-05T05:53:42.699Z,100239.69
2023-03-05T05:56:10.570Z,100244.59
2023-03-05T05:58:38.265Z,100247.16
2023-03-05T06:01:06.022Z,100237.94
2023-03-05T06:03:33.841Z,100240.66
2023-03-05T06:06:01.937Z,100241.72
2023-03-05T06:08:29.701Z,100243.75
2023-03-05T06:10:57.502Z,100241.66
2023-03-05T06:13:25.405Z,100244.66
2023-03-05T06:15:53.130Z,100247.81
2023-03-05T06:18:20.874Z,100239.13
2023-03-05T06:20:48.622Z,100234.09
2023-03-05T06:23:16.448Z,100247.59
2023-03-05T06:25:44.213Z,100241.06
2023-03-05T06:28:11.959Z,100244.41
2023-03-05T06:30:39.738Z,100248.53
2023-03-05T06:33:07.716Z,100245.28
2023-03-05T06:35:35.525Z,100239.56
2023-03-05T06:38:03.554Z,100240.75
2023-03-05T06:40:31.726Z,100232.97
2023-03-05T06:42:59.481Z,100234.94
2023-03-05T06:45:27.253Z,100235.28
2023-03-05T06:47:54.991Z,100229.69
2023-03-05T06:50:22.761Z,100237.94
2023-03-05T06:52:50.486Z,100227.16
2023-03-05T06:55:18.859Z,100229.34
2023-03-05T06:57:46.664Z,100219.72
2023-03-05T07:00:14.440Z,100224.44
2023-03-05T07:02:42.209Z,100221.16
2023-03-05T07:05:09.967Z,100235.59
2023-03-05T07:07:38.169Z,100233.66
2023-03-05T07:10:08.967Z,100225.19
2023-03-05T07:12:38.761Z,100231.47
2023-03-05T07:15:06.621Z,100230.06
2023-03-05T07:17:34.359Z,100234.91
2023-03-05T07:20:02.189Z,100233.25
2023-03-05T07:22:29.950Z,100239.78
2023-03-05T07:24:57.673Z,100236.41
2023-03-05T07:27:25.627Z,100234.06
2023-03-05T07:29:53.362Z,100232.88
2023-03-05T07:32:21.121Z,100228.66
2023-03-05T07:34:48.875Z,100229.69
2023-03-05T07:37:16.705Z,100231.22
2023-03-05T07:39:46.889Z,100225.31
2023-03-05T07:42:14.995Z,100223.16
2023-03-05T07:44:42.781Z,100218.88
2023-03-05T07:47:10.521Z,100226.38
2023-03-05T07:49:39.746Z,100224.19
2023-03-05T07:52:07.497Z,100222.59
2023-03-05T07:54:37.629Z,100223.66
2023-03-05T07:57:05.673Z,100213.22
2023-03-05T07:59:33.427Z,100213.56
2023-03-05T08:02:01.247Z,100215.06
2023-03-05T08:04:31.875Z,100215.25
2023-03-05T08:06:59.842Z,100212.47
2023-03-05T08:09:27.694Z,100212.78
2023-03-05T08:11:55.485Z,100213.06
2023-03-05T08:14:23.258Z,100210.19
2023-03-05T08:16:52.250Z,100212.91
2023-03-05T08:19:20.371Z,100209.38
2023-03-05T08:21:48.327Z,100198.66
2023-03-05T08:24:16.082Z,100200.88
2023-03-05T08:26:43.916Z,100203.41
2023-03-05T08:29:14.507Z,100206.41
2023-03-05T08:31:42.304Z,100200.81
2023-03-05T08:34:10.040Z,100204.25
2023-03-05T08:36:37.811Z,100200.31
2023-03-05T08:39:08.608Z,100195.25
2023-03-05T08:41:36.309Z,100197.25
2023-03-05T08:44:04.105Z,100206.34
2023-03-05T08:46:31.889Z,100197.31
2023-03-05T08:48:59.654Z,100195.34
2023-03-05T08:51:27.518Z,100198.16
2023-03-05T08:53:55.473Z,100187.44
2023-03-05T08:56:23.218Z,100191.75
2023-03-05T08:58:52.477Z,100188.38
2023-03-05T09:01:20.374Z,100184.34
2023-03-05T09:03:48.223Z,100186.78
2023-03-05T09:06:15.989Z,100179.31
2023-03-05T09:08:43.858Z,100185.50
2023-03-05T09:11:11.610Z,100176.31
2023-03-05T09:13:39.429Z,100172.34
2023-03-05T09:16:07.282Z,100172.56
2023-03-05T09:18:36.917Z,100173.03
2023-03-05T09:21:04.780Z,100155.25
2023-03-05T09:23:32.568Z,100158.00
2023-03-05T09:26:03.550Z,100164.56
2023-03-05T09:28:31.275Z,100173.09
2023-03-05T09:30:58.983Z,100157.38
2023-03-05T09:33:26.847Z,100164.41
2023-03-05T09:35:54.648Z,100161.75
2023-03-05T09:38:22.412Z,100165.88
2023-03-05T09:40:50.442Z,100165.94
2023-03-05T09:43:18.204Z,100166.13
2023-03-05T09:45:46.039Z,100169.41
2023-03-05T09:48:13.934Z,100163.00
2023-03-05T09:50:41.658Z,100164.75
2023-03-05T09:53:09.510Z,100145.56
2023-03-05T09:55:40.292Z,100137.09
2023-03-05T09:58:08.111Z,100145.06
2023-03-05T10:00:35.877Z,100138.63
2023-03-05T10:03:03.760Z,100134.44
2023-03-05T10:05:31.533Z,100127.28
2023-03-05T10:07:59.307Z,100142.63
2023-03-05T10:10:27.043Z,100136.75
2023-03-05T10:12:54.818Z,100135.91
2023-03-05T10:15:22.613Z,100130.84
2023-03-05T10:17:50.361Z,100127.44
2023-03-05T10:20:18.099Z,100122.69
2023-03-05T10:22:45.937Z,100116.19
2023-03-05T10:25:13.694Z,100119.09
2023-03-05T10:27:41.836Z,100108.88
2023-03-05T10:30:09.555Z,100110.47
2023-03-05T10:32:37.324Z,100108.41
2023-03-05T10:35:05.189Z,100108.41
2023-03-05T10:37:34.717Z,100095.38
2023-03-05T10:40:02.721Z,100084.50
2023-03-05T10:42:31.364Z,100096.75
2023-03-05T10:44:59.212Z,100099.66
2023-03-05T10:47:27.954Z,100090.84
2023-03-05T10:49:55.676Z,100085.88
2023-03-05T10:52:23.516Z,100084.88
2023-03-05T10:54:51.376Z,100079.44
2023-03-05T10:57:19.219Z,100072.13
2023-03-05T10:59:47.008Z,100064.63
2023-03-05T11:02:14.815Z,100071.38
2023-03-05T11:04:42.680Z,100060.50
2023-03-05T11:07:13.263Z,100056.78
2023-03-05T11:09:41.334Z,100056.78
2023-03-05T11:12:10.257Z,100060.63
2023-03-05T11:14:38.840Z,100054.81
2023-03-05T11:17:06.561Z,100053.81
2023-03-05T11:19:34.950Z,100041.22
2023-03-05T11:22:02.681Z,100031.78
2023-03-05T11:24:30.487Z,100029.88
2023-03-05T11:26:59.529Z,100028.00
2023-03-05T11:29:27.372Z,100027.53
2023-03-05T11:31:55.742Z,100019.75
2023-03-05T11:34:23.966Z,100016.94
2023-03-05T11:36:52.057Z,100012.34
2023-03-05T11:39:19.867Z,100008.22
2023-03-05T11:41:47.656Z,100012.44
2023-03-05T11:44:15.945Z,100007.84
2023-03-05T11:46:43.644Z,99996.97
2023-03-05T11:49:11.439Z,99994.94
2023-03-05T11:51:39.266Z,99993.06
2023-03-05T11:54:07.245Z,99980.31
2023-03-05T11:56:34.967Z,99993.34
2023-03-05T11:59:02.843Z,99988.34
2023-03-05T12:01:30.696Z,99980.88
2023-03-05T12:04:00.175Z,99975.44
2023-03-05T12:06:28.104Z,99975.44
2023-03-05T12:08:55.906Z,99971.03
2023-03-05T12:11:25.705Z,99973.75
2023-03-05T12:13:53.962Z,99956.56
2023-03-05T12:16:24.398Z,99975.81
2023-03-05T12:18:52.290Z,99965.78
2023-03-05T12:21:20.115Z,99967.84
2023-03-05T12:23:47.891Z,99971.09
2023-03-05T12:26:15.688Z,99973.19
2023-03-05T12:28:43.435Z,99966.88
2023-03-05T12:31:11.734Z,99950.97
2023-03-05T12:33:39.594Z,99957.22
2023-03-05T12:36:08.675Z,99952.00
2023-03-05T12:38:38.076Z,99953.00
2023-03-05T12:41:05.854Z,99954.22
2023-03-05T12:43:33.738Z,99956.31
2023-03-05T12:46:02.851Z,99950.28
2023-03-05T12:48:30.679Z,99940.66
2023-03-05T12:50:58.625Z,99943.66
2023-03-05T12:53:26.393Z,99943.50
2023-03-05T12:55:54.358Z,99943.34
2023-03-05T12:58:22.149Z,99933.47
2023-03-05T13:00:50.550Z,99930.53
2023-03-05T13:03:18.762Z,99923.50
2023-03-05T13:05:46.526Z,99925.22
2023-03-05T13:08:16.156Z,99915.22
2023-03-05T13:10:44.478Z,99924.09
2023-03-05T13:13:13.962Z,99921.19
2023-03-05T13:15:41.967Z,99915.72
2023-03-05T13:18:09.766Z,99916.75
2023-03-05T13:20:38.453Z,99922.41
2023-03-05T13:23:06.199Z,99922.34
2023-03-05T13:25:33.961Z,99920.41
2023-03-05T13:28:01.811Z,99926.38
2023-03-05T13:30:29.617Z,99913.28
2023-03-05T13:32:57.385Z,99911.13
2023-03-05T13:35:25.342Z,99919.84
2023-03-05T13:37:53.181Z,99918.09
2023-03-05T13:40:20.956Z,99913.63
2023-03-05T13:42:48.753Z,99907.88
2023-03-05T13:45:16.952Z,99913.25
2023-03-05T13:47:44.783Z,99911.03
2023-03-05T13:50:12.753Z,99911.00
2023-03-05T13:52:40.620Z,99909.91
2023-03-05T13:55:08.390Z,99910.88
2023-03-05T13:57:36.177Z,99917.88
2023-03-05T14:00:04.097Z,99905.44
2023-03-05T14:02:33.391Z,99914.94
2023-03-05T14:05:02.054Z,99906.72
2023-03-05T14:07:32.328Z,99899.34
2023-03-05T14:10:00.812Z,99894.53
2023-03-05T14:12:30.381Z,99899.69
2023-03-05T14:14:59.702Z,99887.31
2023-03-05T14:17:27.633Z,99890.25
2023-03-05T14:19:55.402Z,99883.38
2023-03-05T14:22:23.187Z,99881.44
2023-03-05T14:24:50.956Z,99873.06
2023-03-05T14:27:18.677Z,99867.59
2023-03-05T14:29:50.257Z,99860.84
2023-03-05T14:32:18.060Z,99863.19
2023-03-05T14:34:48.040Z,99864.94
2023-03-05T14:37:15.862Z,99864.94
2023-03-05T14:39:46.249Z,99861.00
2023-03-05T14:42:14.457Z,99853.19
2023-03-05T14:44:43.611Z,99853.47
2023-03-05T14:47:11.302Z,99846.75
2023-03-05T14:49:39.043Z,99850.91
2023-03-05T14:52:06.884Z,99849.19
2023-03-05T14:54:34.624Z,99839.63
2023-03-05T14:57:04.804Z,99836.25
2023-03-05T14:59:32.537Z,99835.56
2023-03-05T15:02:00.302Z,99828.38
2023-03-05T15:04:28.174Z,99827.88
2023-03-05T15:06:56.304Z,99822.16
2023-03-05T15:09:24.084Z,99828.84
2023-03-05T15:11:51.846Z,99823.56
2023-03-05T15:14:19.606Z,99821.97
2023-03-05T15:16:47.813Z,99822.38
2023-03-05T15:19:15.593Z,99819.41
2023-03-05T15:21:43.486Z,99814.34
2023-03-05T15:24:13.049Z,99809.00
2023-03-05T15:26:43.251Z,99805.63
2023-03-05T15:29:11.003Z,99811.91
2023-03-05T15:31:40.598Z,99802.25
2023-03-05T15:34:08.456Z,99803.09
2023-03-05T15:36:36.206Z,99801.66
2023-03-05T15:39:04.039Z,99797.09
2023-03-05T15:41:31.876Z,99802.03
2023-03-05T15:43:59.684Z,99801.44
2023-03-05T15:46:27.560Z,99801.94
2023-03-05T15:48:55.617Z,99791.97
2023-03-05T15:51:23.423Z,99792.66
2023-03-05T15:53:51.349Z,99796.16
2023-03-05T15:56:19.255Z,99803.13
2023-03-05T15:58:47.000Z,99806.25
2023-03-05T16:01:15.657Z,99798.47
2023-03-05T16:03:43.521Z,99801.56
2023-03-05T16:06:12.452Z,99800.47
2023-03-05T16:08:40.248Z,99799.03
2023-03-05T16:11:10.098Z,99800.13
2023-03-05T16:13:37.875Z,99799.50
2023-03-05T16:16:05.709Z,99793.13
2023-03-05T16:18:33.522Z,99798.19
2023-03-05T16:21:02.202Z,99798.22
2023-03-05T16:23:29.964Z,99787.34
2023-03-05T16:25:59.580Z,99798.91
2023-03-05T16:28:27.611Z,99793.25
2023-03-05T16:30:57.644Z,99792.19
2023-03-05T16:33:25.609Z,99789.13
2023-03-05T16:35:53.425Z,99795.66
2023-03-05T16:38:40.025Z,99800.31
2023-03-05T16:41:08.855Z,99797.78
2023-03-05T16:43:36.836Z,99786.22
2023-03-05T16:46:04.624Z,99797.28
2023-03-05T16:48:32.440Z,99781.66
2023-03-05T16:51:00.216Z,99784.53
2023-03-05T16:53:28.162Z,99784.06
2023-03-05T16:55:55.887Z,99788.41
2023-03-05T16:58:23.861Z,99790.88
2023-03-05T17:00:51.740Z,99784.09
2023-03-05T17:03:19.919Z,99787.63
2023-03-05T17:05:47.823Z,99790.75
2023-03-05T17:08:15.586Z,99794.69
2023-03-05T17:10:43.472Z,99791.72
2023-03-05T17:13:11.311Z,99792.31
2023-03-05T17:15:39.157Z,99786.44
2023-03-05T17:18:06.941Z,99794.53
2023-03-05T17:20:35.687Z,99796.97
2023-03-05T17:23:03.652Z,99787.72
2023-03-05T17:25:31.438Z,99795.41
2023-03-05T17:27:59.176Z,99783.22
2023-03-05T17:30:26.956Z,99781.94
2023-03-05T17:32:56.963Z,99787.56
2023-03-05T17:35:25.044Z,99783.75
2023-03-05T17:37:55.281Z,99788.47
2023-03-05T17:40:23.159Z,99789.66
2023-03-05T17:42:50.981Z,99794.22
2023-03-05T17:45:18.870Z,99796.78
2023-03-05T17:47:46.684Z,99786.69
2023-03-05T17:50:14.571Z,99785.47
2023-03-05T17:52:42.460Z,99787.63
2023-03-05T17:55:10.792Z,99784.19
2023-03-05T17:57:41.367Z,99782.69
2023-03-05T18:00:09.379Z,99777.13
2023-03-05T18:02:41.725Z,99785.38
2023-03-05T18:05:09.559Z,99773.66
2023-03-05T18:07:37.513Z,99776.19
2023-03-05T18:10:05.262Z,99766.84
2023-03-05T18:12:33.020Z,99772.00
2023-03-05T18:15:00.747Z,99771.66
2023-03-05T18:17:28.540Z,99759.78
2023-03-05T18:19:56.677Z,99749.94
2023-03-05T18:22:24.476Z,99759.59
2023-03-05T18:24:52.299Z,99747.44
2023-03-05T18:27:20.077Z,99754.13
2023-03-05T18:29:47.949Z,99755.03
2023-03-05T18:32:15.937Z,99761.81
2023-03-05T18:34:43.704Z,99753.06
2023-03-05T18:37:11.518Z,99749.09
2023-03-05T18:39:40.430Z,99748.44
2023-03-05T18:42:08.215Z,99748.03
2023-03-05T18:44:35.960Z,99742.75
2023-03-05T18:47:03.841Z,99745.16
2023-03-05T18:49:31.630Z,99734.66
2023-03-05T18:51:59.482Z,99739.63
2023-03-05T18:54:27.237Z,99734.50
2023-03-05T18:56:55.016Z,99730.97
2023-03-05T18:59:22.862Z,99716.50
2023-03-05T19:01:50.877Z,99702.25
2023-03-05T19:04:21.230Z,99708.28
2023-03-05T19:06:49.046Z,99713.91
2023-03-05T19:09:28.845Z,99715.97
2023-03-05T19:11:56.586Z,99726.75
2023-03-05T19:14:24.333Z,99727.56
2023-03-05T19:16:52.095Z,99725.81
2023-03-05T19:19:22.646Z,99725.56
2023-03-05T19:21:50.383Z,99722.34
2023-03-05T19:24:18.304Z,99723.22
2023-03-05T19:26:46.037Z,99721.91
2023-03-05T19:29:13.826Z,99721.47
2023-03-05T19:31:41.573Z,99716.22
2023-03-05T19:34:09.564Z,99715.63
2023-03-05T19:36:37.439Z,99712.06
2023-03-05T19:39:05.623Z,99711.22
2023-03-05T19:41:33.471Z,99709.03
2023-03-05T19:44:01.354Z,99701.78
2023-03-05T19:46:29.593Z,99706.25
2023-03-05T19:48:57.401Z,99705.75
2023-03-05T19:51:25.351Z,99708.38
2023-03-05T19:53:53.048Z,99700.63
2023-03-05T19:56:20.968Z,99695.84
2023-03-05T19:58:49.720Z,99699.78
2023-03-05T20:01:17.501Z,99694.78
2023-03-05T20:03:45.328Z,99694.75
2023-03-05T20:06:13.118Z,99699.53
2023-03-05T20:08:40.853Z,99695.09
2023-03-05T20:11:11.212Z,99691.13
2023-03-05T20:13:39.265Z,99685.59
2023-03-05T20:16:07.043Z,99690.41
2023-03-05T20:18:34.956Z,99681.19
2023-03-05T20:21:03.537Z,99681.19
2023-03-05T20:23:31.914Z,99676.16
2023-03-05T20:25:59.727Z,99680.38
2023-03-05T20:28:27.604Z,99668.00
2023-03-05T20:30:55.598Z,99671.16
2023-03-05T20:33:23.526Z,99664.91
2023-03-05T20:35:51.356Z,99662.38
2023-03-05T20:38:24.983Z,99668.28
2023-03-05T20:40:52.980Z,99668.44
2023-03-05T20:43:20.739Z,99664.47
2023-03-05T20:45:48.546Z,99660.25
2023-03-05T20:48:16.533Z,99662.31
2023-03-05T20:50:44.244Z,99656.34
2023-03-05T20:53:12.010Z,99654.06
2023-03-05T20:55:39.749Z,99647.03
2023-03-05T20:58:07.566Z,99646.00
2023-03-05T21:00:35.397Z,99640.84
2023-03-05T21:03:03.145Z,99647.94
2023-03-05T21:05:31.414Z,99640.88
2023-03-05T21:07:59.208Z,99640.72
2023-03-05T21:10:26.916Z,99633.56
2023-03-05T21:12:54.837Z,99641.50
2023-03-05T21:15:22.927Z,99637.47
2023-03-05T21:17:50.823Z,99644.22
2023-03-05T21:20:18.686Z,99643.56
2023-03-05T21:22:46.750Z,99640.19
2023-03-05T21:25:20.953Z,99630.28
2023-03-05T21:27:49.527Z,99633.44
2023-03-05T21:30:17.258Z,99630.53
2023-03-05T21:32:45.068Z,99631.13
2023-03-05T21:35:12.989Z,99623.75
2023-03-05T21:37:42.573Z,99631.63
2023-03-05T21:40:10.349Z,99617.50
2023-03-05T21:42:38.117Z,99621.31
2023-03-05T21:45:06.222Z,99623.09
2023-03-05T21:47:34.045Z,99623.81
2023-03-05T21:50:01.959Z,99618.97
2023-03-05T21:52:29.690Z,99609.97
2023-03-05T21:54:57.448Z,99598.25
2023-03-05T21:57:26.455Z,99593.66
2023-03-05T21:59:54.229Z,99597.03
2023-03-05T22:02:21.959Z,99595.38
2023-03-05T22:04:49.703Z,99584.03
2023-03-05T22:07:17.540Z,99586.94
2023-03-05T22:09:45.499Z,99593.63
2023-03-05T22:12:19.117Z,99594.38
2023-03-05T22:14:46.868Z,99587.72
2023-03-05T22:17:14.611Z,99588.47
2023-03-05T22:19:42.375Z,99580.97
2023-03-05T22:22:10.062Z,99594.28
2023-03-05T22:24:38.486Z,99582.00
2023-03-05T22:27:06.220Z,99583.03
2023-03-05T22:29:33.985Z,99580.13
2023-03-05T22:32:01.865Z,99579.47
2023-03-05T22:34:30.012Z,99576.38
2023-03-05T22:36:58.048Z,99573.94
2023-03-05T22:39:25.756Z,99567.84
2023-03-05T22:41:53.476Z,99570.53
2023-03-05T22:44:22.038Z,99573.13
2023-03-05T22:46:51.399Z,99562.25
2023-03-05T22:49:19.120Z,99562.41
2023-03-05T22:51:46.889Z,99559.31
2023-03-05T22:54:14.742Z,99559.31
2023-03-05T22:56:42.497Z,99564.75
2023-03-05T22:59:10.388Z,99556.81
2023-03-05T23:01:38.108Z,99558.00
2023-03-05T23:04:18.222Z,99558.81
2023-03-05T23:06:46.010Z,99546.63
2023-03-05T23:09:13.728Z,99546.63
2023-03-05T23:11:42.061Z,99548.31
2023-03-05T23:14:09.834Z,99541.19
2023-03-05T23:16:37.693Z,99545.06
2023-03-05T23:19:05.572Z,99536.91
2023-03-05T23:21:33.362Z,99543.84
2023-03-05T23:24:01.210Z,99544.97
2023-03-05T23:26:29.006Z,99542.59
2023-03-05T23:28:56.854Z,99538.63
2023-03-05T23:31:24.849Z,99531.88
2023-03-05T23:33:52.649Z,99534.53
2023-03-05T23:36:20.522Z,99529.13
2023-03-05T23:38:48.351Z,99531.00
2023-03-05T23:41:16.138Z,99528.47
2023-03-05T23:43:43.999Z,99528.06
2023-03-05T23:46:11.833Z,99521.22
2023-03-05T23:48:39.627Z,99529.81
2023-03-05T23:51:08.507Z,99524.69
2023-03-05T23:53:36.290Z,99523.03
2023-03-05T23:56:04.051Z,99516.28
2023-03-05T23:58:31.799Z,99513.47
